sensor_id;sensor_type;location;lat;lon;timestamp;temperature;humidity
33067;DHT22;19428;49.024;8.366;2024-01-27T00:02:18;2.40;99.90
33067;DHT22;19428;49.024;8.366;2024-01-27T00:04:44;2.50;99.90
33067;DHT22;19428;49.024;8.366;2024-01-27T00:07:09;2.40;99.90
33067;DHT22;19428;49.024;8.366;2024-01-27T00:09:35;2.20;99.90
33067;DHT22;19428;49.024;8.366;2024-01-27T00:12:00;2.20;99.90
33067;DHT22;19428;49.024;8.366;2024-01-27T00:14:27;2.10;99.90
33067;DHT22;19428;49.024;8.366;2024-01-27T00:16:53;2.00;99.90
33067;DHT22;19428;49.024;8.366;2024-01-27T00:19:18;2.10;99.90
33067;DHT22;19428;49.024;8.366;2024-01-27T00:21:44;2.20;99.90
33067;DHT22;19428;49.024;8.366;2024-01-27T00:24:10;2.30;99.90
33067;DHT22;19428;49.024;8.366;2024-01-27T00:26:35;2.40;99.90
33067;DHT22;19428;49.024;8.366;2024-01-27T00:29:01;2.50;99.90
33067;DHT22;19428;49.024;8.366;2024-01-27T00:31:26;2.60;99.90
33067;DHT22;19428;49.024;8.366;2024-01-27T00:33:52;2.30;99.90
33067;DHT22;19428;49.024;8.366;2024-01-27T00:36:17;2.10;99.90
33067;DHT22;19428;49.024;8.366;2024-01-27T00:38:44;2.10;99.90
33067;DHT22;19428;49.024;8.366;2024-01-27T00:41:15;2.40;99.90
33067;DHT22;19428;49.024;8.366;2024-01-27T00:43:40;2.80;99.90
33067;DHT22;19428;49.024;8.366;2024-01-27T00:46:06;2.90;99.90
33067;DHT22;19428;49.024;8.366;2024-01-27T00:48:31;2.70;99.90
33067;DHT22;19428;49.024;8.366;2024-01-27T00:50:57;2.10;99.90
33067;DHT22;19428;49.024;8.366;2024-01-27T00:53:23;2.10;99.90
33067;DHT22;19428;49.024;8.366;2024-01-27T00:55:48;2.80;99.90
33067;DHT22;19428;49.024;8.366;2024-01-27T00:58:16;2.90;99.90
33067;DHT22;19428;49.024;8.366;2024-01-27T01:00:41;2.80;99.90
33067;DHT22;19428;49.024;8.366;2024-01-27T01:03:07;2.70;99.90
33067;DHT22;19428;49.024;8.366;2024-01-27T01:05:32;2.20;99.90
33067;DHT22;19428;49.024;8.366;2024-01-27T01:07:58;2.20;99.90
33067;DHT22;19428;49.024;8.366;2024-01-27T01:10:23;2.30;99.90
33067;DHT22;19428;49.024;8.366;2024-01-27T01:12:49;2.60;99.90
33067;DHT22;19428;49.024;8.366;2024-01-27T01:15:15;2.50;99.90
33067;DHT22;19428;49.024;8.366;2024-01-27T01:17:41;2.20;99.90
33067;DHT22;19428;49.024;8.366;2024-01-27T01:20:07;1.90;99.90
33067;DHT22;19428;49.024;8.366;2024-01-27T01:22:33;2.00;99.90
33067;DHT22;19428;49.024;8.366;2024-01-27T01:24:58;2.40;99.90
33067;DHT22;19428;49.024;8.366;2024-01-27T01:27:24;2.60;99.90
33067;DHT22;19428;49.024;8.366;2024-01-27T01:29:49;2.00;99.90
33067;DHT22;19428;49.024;8.366;2024-01-27T01:32:15;1.60;99.90
33067;DHT22;19428;49.024;8.366;2024-01-27T01:34:41;2.00;99.90
33067;DHT22;19428;49.024;8.366;2024-01-27T01:37:06;2.30;99.90
33067;DHT22;19428;49.024;8.366;2024-01-27T01:39:32;1.90;99.90
33067;DHT22;19428;49.024;8.366;2024-01-27T01:41:57;2.10;99.90
33067;DHT22;19428;49.024;8.366;2024-01-27T01:44:29;1.80;99.90
33067;DHT22;19428;49.024;8.366;2024-01-27T01:46:56;1.90;99.90
33067;DHT22;19428;49.024;8.366;2024-01-27T01:49:22;2.00;99.90
33067;DHT22;19428;49.024;8.366;2024-01-27T01:51:48;2.00;99.90
33067;DHT22;19428;49.024;8.366;2024-01-27T01:54:13;1.70;99.90
33067;DHT22;19428;49.024;8.366;2024-01-27T01:56:39;1.80;99.90
33067;DHT22;19428;49.024;8.366;2024-01-27T01:59:05;1.90;99.90
33067;DHT22;19428;49.024;8.366;2024-01-27T02:01:30;1.50;99.90
33067;DHT22;19428;49.024;8.366;2024-01-27T02:03:56;1.70;99.90
33067;DHT22;19428;49.024;8.366;2024-01-27T02:06:22;1.70;99.90
33067;DHT22;19428;49.024;8.366;2024-01-27T02:08:48;1.60;99.90
33067;DHT22;19428;49.024;8.366;2024-01-27T02:11:14;1.70;99.90
33067;DHT22;19428;49.024;8.366;2024-01-27T02:13:39;1.80;99.90
33067;DHT22;19428;49.024;8.366;2024-01-27T02:16:05;1.60;99.90
33067;DHT22;19428;49.024;8.366;2024-01-27T02:18:31;1.60;99.90
33067;DHT22;19428;49.024;8.366;2024-01-27T02:20:57;1.80;99.90
33067;DHT22;19428;49.024;8.366;2024-01-27T02:23:22;2.00;99.90
33067;DHT22;19428;49.024;8.366;2024-01-27T02:25:48;2.10;99.90
33067;DHT22;19428;49.024;8.366;2024-01-27T02:28:13;2.10;99.90
33067;DHT22;19428;49.024;8.366;2024-01-27T02:30:39;2.10;99.90
33067;DHT22;19428;49.024;8.366;2024-01-27T02:33:05;1.80;99.90
33067;DHT22;19428;49.024;8.366;2024-01-27T02:35:31;2.00;99.90
33067;DHT22;19428;49.024;8.366;2024-01-27T02:37:56;2.00;99.90
33067;DHT22;19428;49.024;8.366;2024-01-27T02:40:22;1.90;99.90
33067;DHT22;19428;49.024;8.366;2024-01-27T02:42:47;2.00;99.90
33067;DHT22;19428;49.024;8.366;2024-01-27T02:45:13;1.70;99.90
33067;DHT22;19428;49.024;8.366;2024-01-27T02:47:39;1.30;99.90
33067;DHT22;19428;49.024;8.366;2024-01-27T02:50:05;1.40;99.90
33067;DHT22;19428;49.024;8.366;2024-01-27T02:52:34;1.30;99.90
33067;DHT22;19428;49.024;8.366;2024-01-27T02:55:00;1.30;99.90
33067;DHT22;19428;49.024;8.366;2024-01-27T02:57:26;1.80;99.90
33067;DHT22;19428;49.024;8.366;2024-01-27T02:59:51;1.80;99.90
33067;DHT22;19428;49.024;8.366;2024-01-27T03:02:17;1.90;99.90
33067;DHT22;19428;49.024;8.366;2024-01-27T03:04:42;1.90;99.90
33067;DHT22;19428;49.024;8.366;2024-01-27T03:07:08;2.10;99.90
33067;DHT22;19428;49.024;8.366;2024-01-27T03:09:33;1.90;99.90
33067;DHT22;19428;49.024;8.366;2024-01-27T03:11:59;1.90;99.90
33067;DHT22;19428;49.024;8.366;2024-01-27T03:14:25;1.90;99.90
33067;DHT22;19428;49.024;8.366;2024-01-27T03:16:51;1.90;99.90
33067;DHT22;19428;49.024;8.366;2024-01-27T03:19:17;1.90;99.90
33067;DHT22;19428;49.024;8.366;2024-01-27T03:21:42;2.00;99.90
33067;DHT22;19428;49.024;8.366;2024-01-27T03:24:08;1.60;99.90
33067;DHT22;19428;49.024;8.366;2024-01-27T03:26:34;1.50;99.90
33067;DHT22;19428;49.024;8.366;2024-01-27T03:29:00;1.50;99.90
33067;DHT22;19428;49.024;8.366;2024-01-27T03:31:32;1.20;99.90
33067;DHT22;19428;49.024;8.366;2024-01-27T03:34:00;1.00;99.90
33067;DHT22;19428;49.024;8.366;2024-01-27T03:36:25;1.10;99.90
33067;DHT22;19428;49.024;8.366;2024-01-27T03:38:51;1.30;99.90
33067;DHT22;19428;49.024;8.366;2024-01-27T03:41:17;1.50;99.90
33067;DHT22;19428;49.024;8.366;2024-01-27T03:43:42;1.50;99.90
33067;DHT22;19428;49.024;8.366;2024-01-27T03:46:08;1.30;99.90
33067;DHT22;19428;49.024;8.366;2024-01-27T03:48:33;1.00;99.90
33067;DHT22;19428;49.024;8.366;2024-01-27T03:51:01;1.10;99.90
33067;DHT22;19428;49.024;8.366;2024-01-27T03:53:26;1.20;99.90
33067;DHT22;19428;49.024;8.366;2024-01-27T03:55:52;1.20;99.90
33067;DHT22;19428;49.024;8.366;2024-01-27T03:58:18;1.40;99.90
33067;DHT22;19428;49.024;8.366;2024-01-27T04:00:44;1.60;99.90
33067;DHT22;19428;49.024;8.366;2024-01-27T04:03:09;1.20;99.90
33067;DHT22;19428;49.024;8.366;2024-01-27T04:05:35;1.00;99.90
33067;DHT22;19428;49.024;8.366;2024-01-27T04:08:01;1.10;99.90
33067;DHT22;19428;49.024;8.366;2024-01-27T04:10:27;1.00;99.90
33067;DHT22;19428;49.024;8.366;2024-01-27T04:12:53;1.00;99.90
33067;DHT22;19428;49.024;8.366;2024-01-27T04:15:18;1.10;99.90
33067;DHT22;19428;49.024;8.366;2024-01-27T04:17:44;1.20;99.90
33067;DHT22;19428;49.024;8.366;2024-01-27T04:20:10;1.20;99.90
33067;DHT22;19428;49.024;8.366;2024-01-27T04:22:36;1.00;99.90
33067;DHT22;19428;49.024;8.366;2024-01-27T04:25:02;0.90;99.90
33067;DHT22;19428;49.024;8.366;2024-01-27T04:27:27;0.80;99.90
33067;DHT22;19428;49.024;8.366;2024-01-27T04:29:53;0.70;99.90
33067;DHT22;19428;49.024;8.366;2024-01-27T04:32:20;0.70;99.90
33067;DHT22;19428;49.024;8.366;2024-01-27T04:34:47;0.80;99.90
33067;DHT22;19428;49.024;8.366;2024-01-27T04:37:12;1.00;99.90
33067;DHT22;19428;49.024;8.366;2024-01-27T04:39:38;1.20;99.90
33067;DHT22;19428;49.024;8.366;2024-01-27T04:42:05;1.30;99.90
33067;DHT22;19428;49.024;8.366;2024-01-27T04:44:32;1.30;99.90
33067;DHT22;19428;49.024;8.366;2024-01-27T04:46:58;1.20;99.90
33067;DHT22;19428;49.024;8.366;2024-01-27T04:49:23;1.00;99.90
33067;DHT22;19428;49.024;8.366;2024-01-27T04:51:49;0.70;99.90
33067;DHT22;19428;49.024;8.366;2024-01-27T04:54:15;0.60;99.90
33067;DHT22;19428;49.024;8.366;2024-01-27T04:56:41;0.70;99.90
33067;DHT22;19428;49.024;8.366;2024-01-27T04:59:06;1.00;99.90
33067;DHT22;19428;49.024;8.366;2024-01-27T05:01:32;0.60;99.90
33067;DHT22;19428;49.024;8.366;2024-01-27T05:03:58;0.30;99.90
33067;DHT22;19428;49.024;8.366;2024-01-27T05:06:23;0.10;99.90
33067;DHT22;19428;49.024;8.366;2024-01-27T05:08:49;0.40;99.90
33067;DHT22;19428;49.024;8.366;2024-01-27T05:11:16;0.70;99.90
33067;DHT22;19428;49.024;8.366;2024-01-27T05:13:42;0.90;99.90
33067;DHT22;19428;49.024;8.366;2024-01-27T05:16:09;0.70;99.90
33067;DHT22;19428;49.024;8.366;2024-01-27T05:18:34;0.50;99.90
33067;DHT22;19428;49.024;8.366;2024-01-27T05:21:00;0.40;99.90
33067;DHT22;19428;49.024;8.366;2024-01-27T05:23:25;0.20;99.90
33067;DHT22;19428;49.024;8.366;2024-01-27T05:25:51;0.10;99.90
33067;DHT22;19428;49.024;8.366;2024-01-27T05:28:17;0.20;99.90
33067;DHT22;19428;49.024;8.366;2024-01-27T05:30:42;0.10;99.90
33067;DHT22;19428;49.024;8.366;2024-01-27T05:33:09;0.20;99.90
33067;DHT22;19428;49.024;8.366;2024-01-27T05:35:34;0.10;99.90
33067;DHT22;19428;49.024;8.366;2024-01-27T05:38:00;0.00;99.90
33067;DHT22;19428;49.024;8.366;2024-01-27T05:40:25;0.00;99.90
33067;DHT22;19428;49.024;8.366;2024-01-27T05:42:51;0.10;99.90
33067;DHT22;19428;49.024;8.366;2024-01-27T05:45:17;0.20;99.90
33067;DHT22;19428;49.024;8.366;2024-01-27T05:47:43;0.00;99.90
33067;DHT22;19428;49.024;8.366;2024-01-27T05:50:08;-0.10;99.90
33067;DHT22;19428;49.024;8.366;2024-01-27T05:52:37;-0.20;99.90
33067;DHT22;19428;49.024;8.366;2024-01-27T05:55:02;-0.10;99.90
33067;DHT22;19428;49.024;8.366;2024-01-27T05:57:31;-0.10;99.90
33067;DHT22;19428;49.024;8.366;2024-01-27T05:59:57;-0.30;99.90
33067;DHT22;19428;49.024;8.366;2024-01-27T06:02:22;-0.10;99.90
33067;DHT22;19428;49.024;8.366;2024-01-27T06:04:48;-0.10;99.90
33067;DHT22;19428;49.024;8.366;2024-01-27T06:07:14;0.20;99.90
33067;DHT22;19428;49.024;8.366;2024-01-27T06:09:39;0.20;99.90
33067;DHT22;19428;49.024;8.366;2024-01-27T06:12:05;-0.20;99.90
33067;DHT22;19428;49.024;8.366;2024-01-27T06:14:31;0.10;99.90
33067;DHT22;19428;49.024;8.366;2024-01-27T06:16:56;0.10;99.90
33067;DHT22;19428;49.024;8.366;2024-01-27T06:19:23;0.20;99.90
33067;DHT22;19428;49.024;8.366;2024-01-27T06:21:49;0.30;99.90
33067;DHT22;19428;49.024;8.366;2024-01-27T06:24:15;0.20;99.90
33067;DHT22;19428;49.024;8.366;2024-01-27T06:26:40;0.00;99.90
33067;DHT22;19428;49.024;8.366;2024-01-27T06:29:06;0.00;99.90
33067;DHT22;19428;49.024;8.366;2024-01-27T06:31:31;0.20;99.90
33067;DHT22;19428;49.024;8.366;2024-01-27T06:33:57;0.30;99.90
33067;DHT22;19428;49.024;8.366;2024-01-27T06:36:23;0.20;99.90
33067;DHT22;19428;49.024;8.366;2024-01-27T06:38:50;-0.20;99.90
33067;DHT22;19428;49.024;8.366;2024-01-27T06:41:16;-0.30;99.90
33067;DHT22;19428;49.024;8.366;2024-01-27T06:43:42;-0.20;99.90
33067;DHT22;19428;49.024;8.366;2024-01-27T06:46:08;-0.20;99.90
33067;DHT22;19428;49.024;8.366;2024-01-27T06:48:33;-0.40;99.90
33067;DHT22;19428;49.024;8.366;2024-01-27T06:50:59;-0.30;99.90
33067;DHT22;19428;49.024;8.366;2024-01-27T06:53:24;0.00;99.90
33067;DHT22;19428;49.024;8.366;2024-01-27T06:55:50;0.20;99.90
33067;DHT22;19428;49.024;8.366;2024-01-27T06:58:15;0.00;99.90
33067;DHT22;19428;49.024;8.366;2024-01-27T07:00:41;-0.30;99.90
33067;DHT22;19428;49.024;8.366;2024-01-27T07:03:07;-0.30;99.90
33067;DHT22;19428;49.024;8.366;2024-01-27T07:05:33;-0.50;99.90
33067;DHT22;19428;49.024;8.366;2024-01-27T07:08:05;-0.70;99.90
33067;DHT22;19428;49.024;8.366;2024-01-27T07:10:31;-0.60;99.90
33067;DHT22;19428;49.024;8.366;2024-01-27T07:12:57;-0.40;99.90
33067;DHT22;19428;49.024;8.366;2024-01-27T07:15:22;-0.10;99.90
33067;DHT22;19428;49.024;8.366;2024-01-27T07:17:49;0.00;99.90
33067;DHT22;19428;49.024;8.366;2024-01-27T07:20:14;-0.10;99.90
33067;DHT22;19428;49.024;8.366;2024-01-27T07:22:40;-0.20;99.90
33067;DHT22;19428;49.024;8.366;2024-01-27T07:25:06;-0.20;99.90
33067;DHT22;19428;49.024;8.366;2024-01-27T07:27:32;-0.30;99.90
33067;DHT22;19428;49.024;8.366;2024-01-27T07:29:58;-0.20;99.90
33067;DHT22;19428;49.024;8.366;2024-01-27T07:32:23;0.00;99.90
33067;DHT22;19428;49.024;8.366;2024-01-27T07:34:50;0.20;99.90
33067;DHT22;19428;49.024;8.366;2024-01-27T07:37:15;-0.10;99.90
33067;DHT22;19428;49.024;8.366;2024-01-27T07:39:41;-0.30;99.90
33067;DHT22;19428;49.024;8.366;2024-01-27T07:42:07;-0.10;99.90
33067;DHT22;19428;49.024;8.366;2024-01-27T07:44:32;-0.40;99.90
33067;DHT22;19428;49.024;8.366;2024-01-27T07:46:58;-0.40;99.90
33067;DHT22;19428;49.024;8.366;2024-01-27T07:49:24;-0.20;99.90
33067;DHT22;19428;49.024;8.366;2024-01-27T07:51:49;-0.20;99.90
33067;DHT22;19428;49.024;8.366;2024-01-27T07:54:15;0.00;99.90
33067;DHT22;19428;49.024;8.366;2024-01-27T07:56:40;0.10;99.90
33067;DHT22;19428;49.024;8.366;2024-01-27T07:59:06;0.20;99.90
33067;DHT22;19428;49.024;8.366;2024-01-27T08:01:39;0.00;99.90
33067;DHT22;19428;49.024;8.366;2024-01-27T08:04:05;0.20;99.90
33067;DHT22;19428;49.024;8.366;2024-01-27T08:06:30;0.20;99.90
33067;DHT22;19428;49.024;8.366;2024-01-27T08:08:56;0.10;99.90
33067;DHT22;19428;49.024;8.366;2024-01-27T08:11:22;0.10;99.90
33067;DHT22;19428;49.024;8.366;2024-01-27T08:13:47;0.00;99.90
33067;DHT22;19428;49.024;8.366;2024-01-27T08:16:13;0.00;99.90
33067;DHT22;19428;49.024;8.366;2024-01-27T08:18:40;0.20;99.90
33067;DHT22;19428;49.024;8.366;2024-01-27T08:21:08;0.40;99.90
33067;DHT22;19428;49.024;8.366;2024-01-27T08:23:33;0.70;99.90
33067;DHT22;19428;49.024;8.366;2024-01-27T08:25:59;0.80;99.90
33067;DHT22;19428;49.024;8.366;2024-01-27T08:28:25;1.00;99.90
33067;DHT22;19428;49.024;8.366;2024-01-27T08:30:50;0.90;99.90
33067;DHT22;19428;49.024;8.366;2024-01-27T08:33:16;1.00;99.90
33067;DHT22;19428;49.024;8.366;2024-01-27T08:35:42;1.10;99.90
33067;DHT22;19428;49.024;8.366;2024-01-27T08:38:07;1.30;99.90
33067;DHT22;19428;49.024;8.366;2024-01-27T08:40:35;1.40;99.90
33067;DHT22;19428;49.024;8.366;2024-01-27T08:43:01;1.50;99.90
33067;DHT22;19428;49.024;8.366;2024-01-27T08:45:27;1.60;99.90
33067;DHT22;19428;49.024;8.366;2024-01-27T08:47:53;1.80;99.90
33067;DHT22;19428;49.024;8.366;2024-01-27T08:50:19;1.90;99.90
33067;DHT22;19428;49.024;8.366;2024-01-27T08:52:44;1.90;99.90
33067;DHT22;19428;49.024;8.366;2024-01-27T08:55:11;2.00;99.90
33067;DHT22;19428;49.024;8.366;2024-01-27T08:57:37;2.10;99.90
33067;DHT22;19428;49.024;8.366;2024-01-27T09:00:03;2.20;99.90
33067;DHT22;19428;49.024;8.366;2024-01-27T09:02:29;2.20;99.90
33067;DHT22;19428;49.024;8.366;2024-01-27T09:04:54;2.30;99.90
33067;DHT22;19428;49.024;8.366;2024-01-27T09:07:20;2.40;99.90
33067;DHT22;19428;49.024;8.366;2024-01-27T09:09:46;2.30;99.90
33067;DHT22;19428;49.024;8.366;2024-01-27T09:12:11;2.40;99.90
33067;DHT22;19428;49.024;8.366;2024-01-27T09:14:37;2.50;99.90
33067;DHT22;19428;49.024;8.366;2024-01-27T09:17:03;2.50;99.90
33067;DHT22;19428;49.024;8.366;2024-01-27T09:19:28;2.50;99.90
33067;DHT22;19428;49.024;8.366;2024-01-27T09:21:54;2.60;99.90
33067;DHT22;19428;49.024;8.366;2024-01-27T09:24:20;2.60;99.90
33067;DHT22;19428;49.024;8.366;2024-01-27T09:26:45;2.60;99.90
33067;DHT22;19428;49.024;8.366;2024-01-27T09:29:11;2.70;99.90
33067;DHT22;19428;49.024;8.366;2024-01-27T09:31:37;2.80;99.90
33067;DHT22;19428;49.024;8.366;2024-01-27T09:34:02;2.90;99.90
33067;DHT22;19428;49.024;8.366;2024-01-27T09:36:28;2.70;99.90
33067;DHT22;19428;49.024;8.366;2024-01-27T09:38:54;2.60;99.90
33067;DHT22;19428;49.024;8.366;2024-01-27T09:41:20;2.70;99.90
33067;DHT22;19428;49.024;8.366;2024-01-27T09:43:46;2.70;99.90
33067;DHT22;19428;49.024;8.366;2024-01-27T09:46:16;2.70;99.90
33067;DHT22;19428;49.024;8.366;2024-01-27T09:48:42;2.70;99.90
33067;DHT22;19428;49.024;8.366;2024-01-27T09:51:08;2.90;99.90
33067;DHT22;19428;49.024;8.366;2024-01-27T09:53:34;3.10;99.90
33067;DHT22;19428;49.024;8.366;2024-01-27T09:56:01;3.20;99.90
33067;DHT22;19428;49.024;8.366;2024-01-27T09:58:30;3.10;99.90
33067;DHT22;19428;49.024;8.366;2024-01-27T10:01:00;3.30;99.90
33067;DHT22;19428;49.024;8.366;2024-01-27T10:03:27;3.40;99.90
33067;DHT22;19428;49.024;8.366;2024-01-27T10:05:54;3.60;99.90
33067;DHT22;19428;49.024;8.366;2024-01-27T10:08:21;3.80;99.90
33067;DHT22;19428;49.024;8.366;2024-01-27T10:10:47;3.80;99.90
33067;DHT22;19428;49.024;8.366;2024-01-27T10:13:16;3.90;99.90
33067;DHT22;19428;49.024;8.366;2024-01-27T10:16:05;3.90;99.90
33067;DHT22;19428;49.024;8.366;2024-01-27T10:18:31;4.00;99.90
33067;DHT22;19428;49.024;8.366;2024-01-27T10:20:57;4.10;99.90
33067;DHT22;19428;49.024;8.366;2024-01-27T10:23:23;4.20;99.90
33067;DHT22;19428;49.024;8.366;2024-01-27T10:25:49;4.20;99.90
33067;DHT22;19428;49.024;8.366;2024-01-27T10:28:15;4.30;99.90
33067;DHT22;19428;49.024;8.366;2024-01-27T10:30:41;4.40;99.90
33067;DHT22;19428;49.024;8.366;2024-01-27T10:33:11;4.30;99.90
33067;DHT22;19428;49.024;8.366;2024-01-27T10:35:43;4.40;99.90
33067;DHT22;19428;49.024;8.366;2024-01-27T10:38:09;4.40;99.90
33067;DHT22;19428;49.024;8.366;2024-01-27T10:40:36;4.50;99.90
33067;DHT22;19428;49.024;8.366;2024-01-27T10:43:03;4.80;99.90
33067;DHT22;19428;49.024;8.366;2024-01-27T10:45:40;4.60;99.90
33067;DHT22;19428;49.024;8.366;2024-01-27T10:48:07;4.60;99.90
33067;DHT22;19428;49.024;8.366;2024-01-27T10:50:37;4.70;99.90
33067;DHT22;19428;49.024;8.366;2024-01-27T10:53:05;4.80;99.90
33067;DHT22;19428;49.024;8.366;2024-01-27T10:55:37;4.80;99.90
33067;DHT22;19428;49.024;8.366;2024-01-27T10:58:03;4.80;99.90
33067;DHT22;19428;49.024;8.366;2024-01-27T11:00:30;4.80;99.90
33067;DHT22;19428;49.024;8.366;2024-01-27T11:03:02;5.00;99.90
33067;DHT22;19428;49.024;8.366;2024-01-27T11:05:28;5.10;99.90
33067;DHT22;19428;49.024;8.366;2024-01-27T11:07:55;5.20;99.90
33067;DHT22;19428;49.024;8.366;2024-01-27T11:10:22;5.20;99.90
33067;DHT22;19428;49.024;8.366;2024-01-27T11:12:49;5.30;99.90
33067;DHT22;19428;49.024;8.366;2024-01-27T11:15:18;5.20;99.90
33067;DHT22;19428;49.024;8.366;2024-01-27T11:17:43;5.30;99.90
33067;DHT22;19428;49.024;8.366;2024-01-27T11:20:12;5.40;99.90
33067;DHT22;19428;49.024;8.366;2024-01-27T11:22:40;5.60;99.90
33067;DHT22;19428;49.024;8.366;2024-01-27T11:27:39;5.60;99.90
33067;DHT22;19428;49.024;8.366;2024-01-27T11:30:07;5.70;99.90
33067;DHT22;19428;49.024;8.366;2024-01-27T11:32:49;5.90;99.90
33067;DHT22;19428;49.024;8.366;2024-01-27T11:35:20;5.90;99.90
33067;DHT22;19428;49.024;8.366;2024-01-27T11:37:45;5.90;99.90
33067;DHT22;19428;49.024;8.366;2024-01-27T11:40:11;6.00;99.90
33067;DHT22;19428;49.024;8.366;2024-01-27T11:42:37;6.10;99.90
33067;DHT22;19428;49.024;8.366;2024-01-27T11:45:03;6.10;99.90
33067;DHT22;19428;49.024;8.366;2024-01-27T11:47:29;6.30;99.90
33067;DHT22;19428;49.024;8.366;2024-01-27T11:49:56;6.40;99.90
33067;DHT22;19428;49.024;8.366;2024-01-27T11:52:23;6.50;99.90
33067;DHT22;19428;49.024;8.366;2024-01-27T11:54:56;6.60;99.90
33067;DHT22;19428;49.024;8.366;2024-01-27T11:57:22;6.70;99.90
33067;DHT22;19428;49.024;8.366;2024-01-27T11:59:48;6.80;99.90
33067;DHT22;19428;49.024;8.366;2024-01-27T12:02:14;7.10;99.90
33067;DHT22;19428;49.024;8.366;2024-01-27T12:04:40;7.00;99.90
33067;DHT22;19428;49.024;8.366;2024-01-27T12:07:06;7.10;99.90
33067;DHT22;19428;49.024;8.366;2024-01-27T12:09:32;7.30;99.90
33067;DHT22;19428;49.024;8.366;2024-01-27T12:11:58;7.10;99.90
33067;DHT22;19428;49.024;8.366;2024-01-27T12:14:23;7.20;99.90
33067;DHT22;19428;49.024;8.366;2024-01-27T12:16:50;7.10;99.90
33067;DHT22;19428;49.024;8.366;2024-01-27T12:19:16;7.10;99.90
33067;DHT22;19428;49.024;8.366;2024-01-27T12:21:49;7.00;99.90
33067;DHT22;19428;49.024;8.366;2024-01-27T12:24:16;7.00;99.90
33067;DHT22;19428;49.024;8.366;2024-01-27T12:26:43;7.10;99.90
33067;DHT22;19428;49.024;8.366;2024-01-27T12:29:10;7.20;99.90
33067;DHT22;19428;49.024;8.366;2024-01-27T12:31:37;7.00;99.90
33067;DHT22;19428;49.024;8.366;2024-01-27T12:34:04;7.00;99.90
33067;DHT22;19428;49.024;8.366;2024-01-27T12:36:29;6.90;99.90
33067;DHT22;19428;49.024;8.366;2024-01-27T12:39:00;7.00;99.90
33067;DHT22;19428;49.024;8.366;2024-01-27T12:41:27;7.30;99.90
33067;DHT22;19428;49.024;8.366;2024-01-27T12:43:54;7.30;99.90
33067;DHT22;19428;49.024;8.366;2024-01-27T12:46:21;7.10;99.90
33067;DHT22;19428;49.024;8.366;2024-01-27T12:48:47;7.20;99.90
33067;DHT22;19428;49.024;8.366;2024-01-27T12:51:13;7.30;99.90
33067;DHT22;19428;49.024;8.366;2024-01-27T12:53:40;7.40;99.90
33067;DHT22;19428;49.024;8.366;2024-01-27T12:56:10;7.60;99.90
33067;DHT22;19428;49.024;8.366;2024-01-27T12:58:36;7.70;99.90
33067;DHT22;19428;49.024;8.366;2024-01-27T13:01:02;8.00;99.90
33067;DHT22;19428;49.024;8.366;2024-01-27T13:03:28;8.10;99.90
33067;DHT22;19428;49.024;8.366;2024-01-27T13:05:54;8.30;99.90
33067;DHT22;19428;49.024;8.366;2024-01-27T13:08:20;8.10;96.20
33067;DHT22;19428;49.024;8.366;2024-01-27T13:10:47;8.00;99.90
33067;DHT22;19428;49.024;8.366;2024-01-27T13:13:12;8.10;98.80
33067;DHT22;19428;49.024;8.366;2024-01-27T13:15:38;8.40;99.90
33067;DHT22;19428;49.024;8.366;2024-01-27T13:18:04;8.30;95.60
33067;DHT22;19428;49.024;8.366;2024-01-27T13:20:29;8.40;97.50
33067;DHT22;19428;49.024;8.366;2024-01-27T13:22:55;8.50;93.30
33067;DHT22;19428;49.024;8.366;2024-01-27T13:25:21;8.50;84.50
33067;DHT22;19428;49.024;8.366;2024-01-27T13:27:46;8.40;83.30
33067;DHT22;19428;49.024;8.366;2024-01-27T13:30:12;8.50;89.40
33067;DHT22;19428;49.024;8.366;2024-01-27T13:32:38;8.60;85.40
33067;DHT22;19428;49.024;8.366;2024-01-27T13:35:05;8.60;80.90
33067;DHT22;19428;49.024;8.366;2024-01-27T13:37:31;8.50;81.60
33067;DHT22;19428;49.024;8.366;2024-01-27T13:40:02;8.60;73.00
33067;DHT22;19428;49.024;8.366;2024-01-27T13:42:28;8.80;75.70
33067;DHT22;19428;49.024;8.366;2024-01-27T13:44:54;8.80;65.60
33067;DHT22;19428;49.024;8.366;2024-01-27T13:47:20;8.90;62.10
33067;DHT22;19428;49.024;8.366;2024-01-27T13:49:46;8.70;55.60
33067;DHT22;19428;49.024;8.366;2024-01-27T13:52:11;8.70;58.60
33067;DHT22;19428;49.024;8.366;2024-01-27T13:54:37;8.70;53.80
33067;DHT22;19428;49.024;8.366;2024-01-27T13:57:04;8.70;49.60
33067;DHT22;19428;49.024;8.366;2024-01-27T13:59:30;8.70;47.50
33067;DHT22;19428;49.024;8.366;2024-01-27T14:01:56;8.70;47.70
33067;DHT22;19428;49.024;8.366;2024-01-27T14:04:23;8.60;46.30
33067;DHT22;19428;49.024;8.366;2024-01-27T14:06:50;8.70;45.20
33067;DHT22;19428;49.024;8.366;2024-01-27T14:09:16;8.70;45.50
33067;DHT22;19428;49.024;8.366;2024-01-27T14:11:43;8.60;44.40
33067;DHT22;19428;49.024;8.366;2024-01-27T14:14:08;8.60;42.40
33067;DHT22;19428;49.024;8.366;2024-01-27T14:16:34;8.60;43.10
33067;DHT22;19428;49.024;8.366;2024-01-27T14:19:00;8.60;45.10
33067;DHT22;19428;49.024;8.366;2024-01-27T14:21:26;8.50;46.80
33067;DHT22;19428;49.024;8.366;2024-01-27T14:23:53;8.40;47.90
33067;DHT22;19428;49.024;8.366;2024-01-27T14:26:28;8.40;50.80
33067;DHT22;19428;49.024;8.366;2024-01-27T14:28:54;8.50;49.60
33067;DHT22;19428;49.024;8.366;2024-01-27T14:31:20;8.70;48.70
33067;DHT22;19428;49.024;8.366;2024-01-27T14:33:46;8.70;45.60
33067;DHT22;19428;49.024;8.366;2024-01-27T14:36:12;8.60;44.50
33067;DHT22;19428;49.024;8.366;2024-01-27T14:38:38;8.60;45.60
33067;DHT22;19428;49.024;8.366;2024-01-27T14:41:04;8.60;44.60
33067;DHT22;19428;49.024;8.366;2024-01-27T14:43:30;8.60;47.00
33067;DHT22;19428;49.024;8.366;2024-01-27T14:45:56;8.70;45.80
33067;DHT22;19428;49.024;8.366;2024-01-27T14:48:22;8.70;43.80
33067;DHT22;19428;49.024;8.366;2024-01-27T14:50:47;8.70;44.80
33067;DHT22;19428;49.024;8.366;2024-01-27T14:53:18;8.60;44.60
33067;DHT22;19428;49.024;8.366;2024-01-27T14:55:44;8.50;46.50
33067;DHT22;19428;49.024;8.366;2024-01-27T14:58:10;8.60;46.60
33067;DHT22;19428;49.024;8.366;2024-01-27T15:00:36;8.60;43.10
33067;DHT22;19428;49.024;8.366;2024-01-27T15:03:08;8.50;44.90
33067;DHT22;19428;49.024;8.366;2024-01-27T15:05:34;8.50;45.60
33067;DHT22;19428;49.024;8.366;2024-01-27T15:08:03;8.60;45.30
33067;DHT22;19428;49.024;8.366;2024-01-27T15:10:29;8.50;46.00
33067;DHT22;19428;49.024;8.366;2024-01-27T15:12:54;8.40;46.40
33067;DHT22;19428;49.024;8.366;2024-01-27T15:15:20;8.40;45.20
33067;DHT22;19428;49.024;8.366;2024-01-27T15:17:45;8.30;47.50
33067;DHT22;19428;49.024;8.366;2024-01-27T15:20:11;8.40;46.20
33067;DHT22;19428;49.024;8.366;2024-01-27T15:22:40;8.40;46.70
33067;DHT22;19428;49.024;8.366;2024-01-27T15:25:06;8.20;50.30
33067;DHT22;19428;49.024;8.366;2024-01-27T15:27:32;8.20;53.50
33067;DHT22;19428;49.024;8.366;2024-01-27T15:29:58;8.10;52.70
33067;DHT22;19428;49.024;8.366;2024-01-27T15:32:23;8.30;49.10
33067;DHT22;19428;49.024;8.366;2024-01-27T15:34:52;8.20;49.10
33067;DHT22;19428;49.024;8.366;2024-01-27T15:37:18;7.90;56.90
33067;DHT22;19428;49.024;8.366;2024-01-27T15:39:44;7.90;56.30
33067;DHT22;19428;49.024;8.366;2024-01-27T15:42:10;7.80;58.20